VG49 weather

Tappahannock Hospital Heliport
Tappahannock, Virginia, United States

Public forecast

Using degrees Fahrenheit for public forecast. Weather courtesy of forecast.io.

METAR (pilot weather report)

Closest report is Tappahannock-Essex County Airport, 2.6 nm (4.9 km) SSW. Retrieved 2019/06/20 09:35 UTC (0 seconds ago):

KXSA 200935Z AUTO 18005KT 10SM CLR 23/23 A2966 RMK AO2 T02280228

TAF (pilot weather forecast)

Closest forecast is Richmond International Airport, 31.7 nm (58.8 km) SW. Retrieved 2019/06/20 06:48 UTC (2 hours ago):

TAF KRIC 200546Z 2006/2106 19007KT P6SM SCT040 BKN200 FM201400 22012KT P6SM SCT060 BKN200 FM201900 23013G20KT P6SM VCTS BKN050CB FM202200 23012KT 4SM SHRA BR BKN040 FM210100 25011KT P6SM SCT080 BKN150